Time;durP1;ratioP1;P1;durP2;ratioP2;P2;SDS_P1;SDS_P2;PMS_P1;PMS_P2;Temp;Humidity;BMP_temperature;BMP_pressure;BME280_temperature;BME280_humidity;BME280_pressure;Samples;Min_cycle;Max_cycle;Signal;HPM_P1;HPM_P2
2021/03/28 00:00:49;;;;;;;;;;;;;;;23.80;35.89;100661.28;4484093;32;34787;-51
2021/03/28 00:03:40;;;;;;;;;;;;;;;23.80;35.91;100661.28;4483073;32;34886;-53
2021/03/28 00:06:11;;;;;;;;;;;;;;;23.80;35.71;100666.75;4473918;32;33787;-56
2021/03/28 00:08:38;;;;;;;;;;;;;;;23.81;35.68;100677.41;4484169;32;33374;-53
2021/03/28 00:11:23;;;;;;;;;;;;;;;23.80;35.76;100669.47;4494734;31;34854;-48
2021/03/28 00:13:54;;;;;;;;;;;;;;;23.80;35.84;100672.19;4485652;31;34181;-53
2021/03/28 00:16:21;;;;;;;;;;;;;;;23.79;35.89;100686.88;4500310;31;35041;-49
2021/03/28 00:18:52;;;;;;;;;;;;;;;23.79;35.91;100689.59;4500097;31;33440;-56
2021/03/28 00:21:27;;;;;;;;;;;;;;;23.77;35.88;100692.50;4485761;31;34158;-56
2021/03/28 00:23:55;;;;;;;;;;;;;;;23.76;35.88;100700.91;4485888;31;34085;-53
2021/03/28 00:26:22;;;;;;;;;;;;;;;23.75;36.00;100699.22;4500087;31;34007;-51
2021/03/28 00:28:49;;;;;;;;;;;;;;;23.74;36.00;100705.72;4500454;31;34027;-53
2021/03/28 00:31:22;;;;;;;;;;;;;;;23.73;36.01;100699.41;4485750;31;34035;-51
2021/03/28 00:34:00;;;;;;;;;;;;;;;23.71;36.00;100706.97;4498039;31;34871;-52
2021/03/28 00:36:32;;;;;;;;;;;;;;;23.70;36.14;100697.13;4481633;32;34112;-56
2021/03/28 00:38:59;;;;;;;;;;;;;;;23.70;36.14;100709.91;4484155;32;34298;-53
2021/03/28 00:41:27;;;;;;;;;;;;;;;23.67;36.22;100703.81;4482843;32;34144;-53
2021/03/28 00:43:55;;;;;;;;;;;;;;;23.67;36.24;100697.53;4483564;32;34222;-52
2021/03/28 00:46:42;;;;;;;;;;;;;;;23.65;36.27;100686.84;4473868;32;34711;-53
2021/03/28 00:49:11;;;;;;;;;;;;;;;23.63;36.19;100694.34;4483438;31;33210;-55
2021/03/28 00:51:42;;;;;;;;;;;;;;;23.63;36.18;100685.31;4488659;31;34121;-54
2021/03/28 00:54:19;;;;;;;;;;;;;;;23.61;36.27;100687.44;4478733;32;33688;-54
2021/03/28 00:56:50;;;;;;;;;;;;;;;23.60;36.29;100686.59;4469503;32;33581;-54
2021/03/28 00:59:26;;;;;;;;;;;;;;;23.60;36.31;100686.59;4470579;32;34001;-55
2021/03/28 01:02:02;;;;;;;;;;;;;;;23.59;36.21;100692.22;4482442;32;33983;-55
2021/03/28 01:04:33;;;;;;;;;;;;;;;23.58;36.28;100699.56;4482637;32;34089;-57
2021/03/28 01:07:03;;;;;;;;;;;;;;;23.57;36.36;100694.34;4483748;32;33787;-53
2021/03/28 01:09:33;;;;;;;;;;;;;;;23.57;36.35;100703.34;4483640;32;33369;-51
2021/03/28 01:12:06;;;;;;;;;;;;;;;23.57;36.42;100699.78;4490496;31;34089;-53
2021/03/28 01:14:59;;;;;;;;;;;;;;;23.56;36.35;100704.41;4499330;31;35608;-55
2021/03/28 01:17:28;;;;;;;;;;;;;;;23.55;36.38;100713.62;4475668;31;34013;-54
2021/03/28 01:19:58;;;;;;;;;;;;;;;23.55;36.53;100705.44;4498058;31;33228;-55
2021/03/28 01:22:25;;;;;;;;;;;;;;;23.54;36.58;100709.19;4499451;31;34075;-56
2021/03/28 01:24:52;;;;;;;;;;;;;;;23.55;36.57;100710.91;4499341;31;34304;-49
2021/03/28 01:27:19;;;;;;;;;;;;;;;23.53;36.58;100715.69;4499177;31;34095;-56
2021/03/28 01:29:48;;;;;;;;;;;;;;;23.53;36.57;100712.13;4499270;31;33490;-53
2021/03/28 01:32:34;;;;;;;;;;;;;;;23.52;36.60;100705.84;4499081;31;34880;-56
2021/03/28 01:35:05;;;;;;;;;;;;;;;23.51;36.50;100704.19;4499252;31;34738;-56
2021/03/28 01:37:39;;;;;;;;;;;;;;;23.50;36.58;100707.09;4497834;31;34749;-54
2021/03/28 01:40:08;;;;;;;;;;;;;;;23.49;36.62;100717.12;4499498;31;32696;-53
2021/03/28 01:42:43;;;;;;;;;;;;;;;23.49;36.54;100717.12;4497835;31;34864;-48
2021/03/28 01:45:12;;;;;;;;;;;;;;;23.48;36.39;100723.62;4497576;31;34530;-53
2021/03/28 01:47:44;;;;;;;;;;;;;;;23.47;36.42;100730.12;4487238;31;34017;-53
2021/03/28 01:50:10;;;;;;;;;;;;;;;23.47;36.51;100730.12;4500007;31;33230;-55
2021/03/28 01:52:38;;;;;;;;;;;;;;;23.47;36.54;100735.59;4501037;31;33856;-55
2021/03/28 01:55:14;;;;;;;;;;;;;;;23.46;36.71;100736.62;4499970;31;34136;-53
2021/03/28 01:57:47;;;;;;;;;;;;;;;23.46;36.56;100742.09;4499695;31;34711;-52
2021/03/28 02:00:17;;;;;;;;;;;;;;;23.45;36.66;100745.84;4500017;31;33448;-48
2021/03/28 02:03:05;;;;;;;;;;;;;;;23.43;36.51;100746.03;4501169;31;34111;-51
2021/03/28 02:05:43;;;;;;;;;;;;;;;23.41;36.50;100739.97;4499881;31;35060;-53
2021/03/28 02:08:29;;;;;;;;;;;;;;;23.42;36.55;100751.69;4499748;31;34699;-54
2021/03/28 02:11:14;;;;;;;;;;;;;;;23.40;36.59;100754.59;4501082;31;33266;-56
2021/03/28 02:13:56;;;;;;;;;;;;;;;23.38;36.62;100753.16;4500980;31;33751;-51
2021/03/28 02:16:28;;;;;;;;;;;;;;;23.39;36.62;100749.37;4501084;31;35030;-55
2021/03/28 02:19:07;;;;;;;;;;;;;;;23.37;36.77;100760.47;4499605;31;34215;-53
2021/03/28 02:21:53;;;;;;;;;;;;;;;23.38;36.88;100774.94;4499745;31;33214;-54
2021/03/28 02:24:29;;;;;;;;;;;;;;;23.37;36.88;100779.56;4501064;31;34858;-54
2021/03/28 02:27:11;;;;;;;;;;;;;;;23.36;36.88;100777.00;4500951;31;35070;-53
2021/03/28 02:29:56;;;;;;;;;;;;;;;23.35;36.88;100781.62;4500993;31;33763;-51
2021/03/28 02:32:23;;;;;;;;;;;;;;;23.34;36.89;100779.94;4499513;31;33245;-53
2021/03/28 02:34:59;;;;;;;;;;;;;;;23.34;36.87;100787.28;4490292;31;34246;-52
2021/03/28 02:37:35;;;;;;;;;;;;;;;23.34;36.89;100787.28;4479806;32;34071;-51
2021/03/28 02:40:20;;;;;;;;;;;;;;;23.33;36.92;100782.87;4486359;31;34010;-50
2021/03/28 02:42:53;;;;;;;;;;;;;;;23.33;36.80;100782.87;4495293;31;33279;-49
2021/03/28 02:45:26;;;;;;;;;;;;;;;23.33;36.85;100780.16;4483834;32;33722;-53
2021/03/28 02:48:00;;;;;;;;;;;;;;;23.33;36.95;100782.87;4484921;32;34082;-50
2021/03/28 02:50:40;;;;;;;;;;;;;;;23.32;36.93;100786.66;4484852;32;34186;-47
2021/03/28 02:53:16;;;;;;;;;;;;;;;23.32;37.03;100783.94;4484917;32;33562;-53
2021/03/28 02:55:54;;;;;;;;;;;;;;;23.32;37.04;100794.81;4484759;32;35625;-50
2021/03/28 02:58:21;;;;;;;;;;;;;;;23.31;37.04;100790.38;4482793;32;32600;-53
2021/03/28 03:00:48;;;;;;;;;;;;;;;23.28;36.90;100794.38;4481238;32;34458;-49
2021/03/28 03:03:34;;;;;;;;;;;;;;;23.30;37.02;100791.44;4500322;31;34329;-55
2021/03/28 03:06:20;;;;;;;;;;;;;;;23.29;36.99;100781.59;4487855;31;34049;-56
2021/03/28 03:09:01;;;;;;;;;;;;;;;23.28;37.11;100794.38;4484808;32;34190;-54
2021/03/28 03:11:35;;;;;;;;;;;;;;;23.26;36.92;100787.44;4470586;32;34772;-49
2021/03/28 03:14:24;;;;;;;;;;;;;;;23.27;37.09;100800.00;4484553;32;33306;-53
2021/03/28 03:16:51;;;;;;;;;;;;;;;23.25;37.05;100797.50;4477644;31;33840;-50
2021/03/28 03:19:23;;;;;;;;;;;;;;;23.25;36.95;100793.94;4500056;31;34148;-56
2021/03/28 03:22:09;;;;;;;;;;;;;;;23.24;37.15;100798.53;4482085;31;34838;-49
2021/03/28 03:24:54;;;;;;;;;;;;;;;23.25;37.14;100813.00;4482239;32;33521;-50
2021/03/28 03:27:27;;;;;;;;;;;;;;;23.24;37.20;100823.03;4472671;32;33815;-51
2021/03/28 03:30:17;;;;;;;;;;;;;;;23.24;37.16;100835.81;4492564;31;34937;-53
2021/03/28 03:32:48;;;;;;;;;;;;;;;23.23;37.21;100845.03;4472063;31;34822;-55
2021/03/28 03:35:19;;;;;;;;;;;;;;;23.22;37.13;100854.22;4483366;32;33871;-54
2021/03/28 03:37:55;;;;;;;;;;;;;;;23.21;37.18;100861.56;4483221;32;34047;-54
2021/03/28 03:40:40;;;;;;;;;;;;;;;23.21;37.16;100855.28;4484607;32;34085;-49
2021/03/28 03:43:13;;;;;;;;;;;;;;;23.21;37.08;100861.56;4484512;32;34503;-51
2021/03/28 03:45:57;;;;;;;;;;;;;;;23.21;37.10;100858.00;4479994;32;33971;-53
2021/03/28 03:48:39;;;;;;;;;;;;;;;23.19;37.01;100871.81;4467554;32;34057;-54
2021/03/28 03:51:43;;;;;;;;;;;;;;;23.20;37.16;100875.38;4477491;32;34046;-55
2021/03/28 03:54:11;;;;;;;;;;;;;;;23.17;37.01;100861.13;4473725;32;33512;-56
2021/03/28 03:56:52;;;;;;;;;;;;;;;23.19;36.97;100857.37;4484429;32;33358;-56
2021/03/28 03:59:18;;;;;;;;;;;;;;;23.20;37.04;100853.59;4483330;32;34201;-54
2021/03/28 04:01:58;;;;;;;;;;;;;;;23.18;37.13;100853.81;4484394;32;34191;-56
2021/03/28 04:04:27;;;;;;;;;;;;;;;23.17;37.02;100854.81;4498774;31;34136;-55
2021/03/28 04:07:10;;;;;;;;;;;;;;;23.17;37.10;100885.63;4500339;31;32886;-53
2021/03/28 04:09:44;;;;;;;;;;;;;;;23.16;37.14;100883.94;4500354;31;35431;-50
2021/03/28 04:12:24;;;;;;;;;;;;;;;23.15;36.95;100884.97;4488998;31;34124;-55
2021/03/28 04:15:00;;;;;;;;;;;;;;;23.15;37.12;100890.44;4477330;32;34809;-52
2021/03/28 04:17:42;;;;;;;;;;;;;;;23.14;37.12;100886.03;4496083;31;32849;-52
2021/03/28 04:20:18;;;;;;;;;;;;;;;23.14;37.04;100894.19;4496272;31;34425;-51
2021/03/28 04:23:04;;;;;;;;;;;;;;;23.13;37.13;100883.50;4483707;32;34743;-48
2021/03/28 04:25:33;;;;;;;;;;;;;;;23.13;37.17;100899.84;4483772;32;35326;-49
2021/03/28 04:28:09;;;;;;;;;;;;;;;23.13;37.30;100908.00;4483815;32;34007;-52
2021/03/28 04:30:48;;;;;;;;;;;;;;;23.13;37.21;100908.84;4482758;32;34692;-50
2021/03/28 04:33:34;;;;;;;;;;;;;;;23.12;37.19;100915.31;4485076;31;34107;-52
2021/03/28 04:36:11;;;;;;;;;;;;;;;23.12;37.22;100914.47;4499365;31;34319;-52
2021/03/28 04:39:07;;;;;;;;;;;;;;;23.11;37.26;100924.53;4491157;31;33985;-52
2021/03/28 04:41:40;;;;;;;;;;;;;;;23.11;37.32;100923.69;4462401;32;33828;-48
2021/03/28 04:44:09;;;;;;;;;;;;;;;23.11;37.10;100931.84;4496252;31;34168;-54
2021/03/28 04:46:46;;;;;;;;;;;;;;;23.12;37.29;100928.09;4497178;31;33596;-54
2021/03/28 04:49:13;;;;;;;;;;;;;;;23.11;37.25;100935.41;4483864;32;33734;-49
2021/03/28 04:51:58;;;;;;;;;;;;;;;23.11;37.15;100938.13;4484080;32;33729;-53
2021/03/28 04:54:31;;;;;;;;;;;;;;;23.11;37.17;100934.56;4483749;32;33697;-53
2021/03/28 04:57:08;;;;;;;;;;;;;;;23.09;37.28;100940.22;4482642;32;34425;-54
2021/03/28 04:59:41;;;;;;;;;;;;;;;23.09;37.27;100962.00;4485503;31;33308;-53
2021/03/28 05:02:17;;;;;;;;;;;;;;;23.11;37.19;100959.06;4499465;31;34844;-55
2021/03/28 05:05:03;;;;;;;;;;;;;;;23.09;37.23;100962.00;4499583;31;34039;-51
2021/03/28 05:07:49;;;;;;;;;;;;;;;23.08;37.15;100965.78;4499901;31;33810;-54
2021/03/28 05:10:22;;;;;;;;;;;;;;;23.08;37.27;100965.78;4499562;31;32851;-54
2021/03/28 05:12:57;;;;;;;;;;;;;;;23.08;37.20;100978.53;4499565;31;33727;-48
2021/03/28 05:15:39;;;;;;;;;;;;;;;23.07;37.31;100983.13;4499285;31;34926;-49
2021/03/28 05:18:25;;;;;;;;;;;;;;;23.08;37.16;100976.66;4485165;31;34028;-55
2021/03/28 05:20:55;;;;;;;;;;;;;;;23.07;37.20;100977.69;4499282;31;33207;-52
2021/03/28 05:23:41;;;;;;;;;;;;;;;23.06;37.15;100983.31;4486768;31;34846;-52
2021/03/28 05:26:26;;;;;;;;;;;;;;;23.06;37.23;100984.16;4501294;31;34185;-57
2021/03/28 05:29:05;;;;;;;;;;;;;;;23.06;37.13;100999.66;4501495;31;33816;-52
2021/03/28 05:31:51;;;;;;;;;;;;;;;23.05;37.13;100987.94;4501115;31;33422;-54
2021/03/28 05:34:37;;;;;;;;;;;;;;;23.06;37.42;100995.06;4500810;31;35009;-47
2021/03/28 05:37:13;;;;;;;;;;;;;;;23.04;37.35;100991.69;4486750;31;34581;-51
2021/03/28 05:39:44;;;;;;;;;;;;;;;23.04;37.31;100999.87;4485044;32;33744;-55
2021/03/28 05:42:10;;;;;;;;;;;;;;;23.04;37.43;101002.59;4484041;32;33500;-50
2021/03/28 05:44:56;;;;;;;;;;;;;;;23.05;37.27;101003.44;4485514;32;33694;-56
2021/03/28 05:47:42;;;;;;;;;;;;;;;23.04;37.40;101007.19;4485430;32;34835;-53
2021/03/28 05:50:19;;;;;;;;;;;;;;;23.04;37.47;101018.09;4485170;32;34115;-52
2021/03/28 05:53:04;;;;;;;;;;;;;;;23.02;37.36;101023.69;4484210;32;33363;-50
2021/03/28 05:55:40;;;;;;;;;;;;;;;23.02;37.42;101034.59;4483864;32;34104;-51
2021/03/28 05:58:07;;;;;;;;;;;;;;;23.03;37.41;101025.38;4484206;32;34161;-49
2021/03/28 06:00:46;;;;;;;;;;;;;;;23.02;37.25;101028.31;4485351;32;34092;-54
2021/03/28 06:03:19;;;;;;;;;;;;;;;23.02;37.23;101034.59;4485202;32;33402;-51
2021/03/28 06:05:49;;;;;;;;;;;;;;;23.02;37.22;101044.63;4485613;32;34610;-57
2021/03/28 06:08:28;;;;;;;;;;;;;;;23.01;37.26;101041.06;4485098;32;35043;-56
2021/03/28 06:10:54;;;;;;;;;;;;;;;23.03;37.23;101051.75;4485332;32;34757;-51
2021/03/28 06:13:40;;;;;;;;;;;;;;;23.00;37.40;101053.00;4485192;32;33998;-53
2021/03/28 06:16:16;;;;;;;;;;;;;;;23.03;37.28;101052.59;4485160;32;34006;-54
2021/03/28 06:18:50;;;;;;;;;;;;;;;23.02;37.01;101058.25;4485014;32;34191;-49
2021/03/28 06:21:35;;;;;;;;;;;;;;;23.02;37.17;101067.25;4483853;32;34595;-49
2021/03/28 06:24:25;;;;;;;;;;;;;;;23.02;37.16;101072.69;4484697;32;33420;-52
2021/03/28 06:27:01;;;;;;;;;;;;;;;23.01;37.05;101073.75;4484682;31;34036;-52
2021/03/28 06:29:30;;;;;;;;;;;;;;;23.00;37.02;101082.94;4484582;32;34172;-58
2021/03/28 06:32:06;;;;;;;;;;;;;;;23.00;37.02;101085.69;4481092;32;34363;-57
2021/03/28 06:34:39;;;;;;;;;;;;;;;23.00;37.04;101088.41;4496037;31;33353;-61
2021/03/28 06:37:09;;;;;;;;;;;;;;;23.00;37.05;101093.84;4497941;31;34107;-56
2021/03/28 06:39:37;;;;;;;;;;;;;;;23.00;37.12;101090.28;4484999;32;33767;-52
2021/03/28 06:42:25;;;;;;;;;;;;;;;23.00;37.11;101093.00;4484954;32;33978;-56
2021/03/28 06:45:11;;;;;;;;;;;;;;;22.99;37.07;101099.47;4477673;32;33440;-57
2021/03/28 06:47:56;;;;;;;;;;;;;;;22.98;37.11;101095.06;4479862;32;34714;-57
2021/03/28 06:50:35;;;;;;;;;;;;;;;22.97;37.15;101106.97;4496106;31;34115;-54
2021/03/28 06:53:04;;;;;;;;;;;;;;;22.96;37.13;101125.19;4488019;31;34038;-52
2021/03/28 06:55:38;;;;;;;;;;;;;;;22.96;37.11;101125.19;4485982;31;33814;-55
2021/03/28 06:58:15;;;;;;;;;;;;;;;22.96;37.17;101127.91;4500347;31;34808;-56
2021/03/28 07:00:52;;;;;;;;;;;;;;;22.97;37.20;101120.59;4485954;31;35533;-51
2021/03/28 07:03:26;;;;;;;;;;;;;;;22.97;37.21;101132.31;4494520;31;34154;-50
2021/03/28 07:06:08;;;;;;;;;;;;;;;22.96;37.20;101130.62;4484763;32;33985;-55
2021/03/28 07:08:38;;;;;;;;;;;;;;;22.97;37.13;101131.47;4484614;32;35091;-50
2021/03/28 07:11:24;;;;;;;;;;;;;;;22.96;37.18;101146.13;4484605;32;34208;-49
2021/03/28 07:14:09;;;;;;;;;;;;;;;22.97;37.23;101147.81;4484709;32;34948;-53
2021/03/28 07:16:55;;;;;;;;;;;;;;;22.95;37.34;101150.75;4484659;32;33354;-50
2021/03/28 07:19:40;;;;;;;;;;;;;;;22.96;37.30;101148.84;4483378;32;34044;-48
2021/03/28 07:22:13;;;;;;;;;;;;;;;22.95;37.11;101153.47;4484791;32;34647;-53
2021/03/28 07:24:58;;;;;;;;;;;;;;;22.95;37.14;101163.50;4485025;32;33628;-56
2021/03/28 07:27:28;;;;;;;;;;;;;;;22.95;37.34;101155.34;4484767;32;33191;-56
2021/03/28 07:30:06;;;;;;;;;;;;;;;22.95;37.36;101166.22;4484754;32;34042;-52
2021/03/28 07:32:33;;;;;;;;;;;;;;;22.96;37.17;101157.84;4474977;32;34071;-53
2021/03/28 07:35:19;;;;;;;;;;;;;;;22.95;37.19;101163.50;4481670;31;34727;-55
2021/03/28 07:37:59;;;;;;;;;;;;;;;22.95;37.20;101158.91;4489108;31;32894;-53
2021/03/28 07:40:45;;;;;;;;;;;;;;;22.96;37.07;101154.28;4485992;31;33630;-52
2021/03/28 07:43:31;;;;;;;;;;;;;;;22.95;37.31;101169.78;4500046;31;34951;-52
2021/03/28 07:45:57;;;;;;;;;;;;;;;22.96;37.19;101178.78;4500234;31;34760;-57
2021/03/28 07:48:28;;;;;;;;;;;;;;;22.95;37.23;101171.66;4499542;31;32932;-54
2021/03/28 07:51:30;;;;;;;;;;;;;;;22.97;37.32;101188.63;4482129;32;33670;-52
2021/03/28 07:54:04;;;;;;;;;;;;;;;22.96;37.15;101193.25;4416903;32;34829;-52
2021/03/28 07:56:50;;;;;;;;;;;;;;;22.96;37.32;101192.41;4457963;32;35106;-55
2021/03/28 07:59:28;;;;;;;;;;;;;;;22.95;37.24;101186.13;4468870;32;33339;-58
2021/03/28 08:02:13;;;;;;;;;;;;;;;22.94;37.17;101203.47;4468803;32;34818;-55
2021/03/28 08:05:03;;;;;;;;;;;;;;;22.94;36.89;101198.03;4469326;32;35119;-57
2021/03/28 08:07:39;;;;;;;;;;;;;;;22.93;36.80;101190.88;4468667;32;34966;-50
2021/03/28 08:10:25;;;;;;;;;;;;;;;22.90;36.48;101199.47;4467559;32;33468;-51
2021/03/28 08:13:07;;;;;;;;;;;;;;;22.90;36.17;101197.56;4468828;32;34060;-50
2021/03/28 08:15:53;;;;;;;;;;;;;;;22.88;35.82;101199.59;4468786;32;34451;-55
2021/03/28 08:18:26;;;;;;;;;;;;;;;22.81;35.59;101195.94;4484406;32;34058;-56
2021/03/28 08:21:02;;;;;;;;;;;;;;;22.84;35.38;101205.59;4480745;32;34036;-54
2021/03/28 08:23:44;;;;;;;;;;;;;;;22.86;34.88;101217.16;4473304;32;34177;-48
2021/03/28 08:26:11;;;;;;;;;;;;;;;22.86;35.07;101212.56;4483785;32;34110;-54
2021/03/28 08:28:57;;;;;;;;;;;;;;;22.86;35.18;101220.72;4483398;32;34190;-50
2021/03/28 08:31:30;;;;;;;;;;;;;;;22.86;35.24;101220.72;4482279;32;33350;-53
2021/03/28 08:34:10;;;;;;;;;;;;;;;22.87;35.40;101222.41;4482918;32;34853;-54
2021/03/28 08:36:56;;;;;;;;;;;;;;;22.89;35.42;101224.97;4482309;32;34980;-51
2021/03/28 08:39:23;;;;;;;;;;;;;;;22.90;35.52;101230.25;4483827;32;34081;-61
2021/03/28 08:41:49;;;;;;;;;;;;;;;22.86;35.58;101225.31;4483405;32;33257;-48
2021/03/28 08:44:22;;;;;;;;;;;;;;;22.90;35.67;101226.69;4484081;32;34933;-56
2021/03/28 08:46:54;;;;;;;;;;;;;;;22.91;35.61;101222.91;4484177;32;34053;-52
2021/03/28 08:49:39;;;;;;;;;;;;;;;22.91;35.85;101225.62;4482480;32;33261;-47
2021/03/28 08:52:09;;;;;;;;;;;;;;;22.92;35.85;101222.72;4483886;32;33328;-49
2021/03/28 08:54:56;;;;;;;;;;;;;;;22.92;35.88;101216.44;4482775;32;34095;-49
2021/03/28 08:57:32;;;;;;;;;;;;;;;22.94;35.97;101232.56;4468669;32;33697;-47
2021/03/28 09:00:16;;;;;;;;;;;;;;;22.92;36.03;101232.75;4468005;32;34026;-48
2021/03/28 09:02:54;;;;;;;;;;;;;;;22.92;36.04;101225.44;4467545;32;33558;-51
2021/03/28 09:05:26;;;;;;;;;;;;;;;22.94;36.06;101227.13;4466865;32;34902;-48
2021/03/28 09:07:56;;;;;;;;;;;;;;;22.95;36.07;101232.41;4468084;32;35035;-47
2021/03/28 09:10:41;;;;;;;;;;;;;;;22.97;36.07;101235.75;4477968;32;34051;-48
2021/03/28 09:13:32;;;;;;;;;;;;;;;22.96;36.12;101236.78;4482464;32;33280;-49
2021/03/28 09:16:01;;;;;;;;;;;;;;;22.97;36.17;101234.91;4478578;32;34060;-48
2021/03/28 09:18:40;;;;;;;;;;;;;;;22.96;36.17;101228.62;4466485;32;34201;-52
2021/03/28 09:21:31;;;;;;;;;;;;;;;22.98;36.17;101242.88;4467973;32;33578;-50
2021/03/28 09:24:17;;;;;;;;;;;;;;;22.97;36.23;101230.31;4481749;32;33094;-49
2021/03/28 09:26:50;;;;;;;;;;;;;;;22.97;36.28;101240.34;4483210;32;34691;-49
2021/03/28 09:29:33;;;;;;;;;;;;;;;22.99;36.26;101243.72;4483200;32;34105;-54
2021/03/28 09:32:07;;;;;;;;;;;;;;;22.98;36.27;101233.87;4482097;32;33923;-50
2021/03/28 09:34:53;;;;;;;;;;;;;;;22.98;36.30;101237.44;4475650;32;34714;-47
2021/03/28 09:37:22;;;;;;;;;;;;;;;22.99;36.32;101239.16;4476121;32;34216;-48
2021/03/28 09:39:58;;;;;;;;;;;;;;;22.99;36.30;101227.38;4481783;32;35025;-50
2021/03/28 09:42:25;;;;;;;;;;;;;;;23.00;36.42;101235.38;4483169;32;34123;-51
2021/03/28 09:45:24;;;;;;;;;;;;;;;23.00;36.46;101227.22;4482963;32;33388;-50
2021/03/28 09:47:54;;;;;;;;;;;;;;;23.03;36.63;101225.97;4449756;31;33655;-49
2021/03/28 09:50:40;;;;;;;;;;;;;;;23.16;36.66;101226.16;4481311;32;34068;-49
2021/03/28 09:53:14;;;;;;;;;;;;;;;23.32;36.57;101241.44;4482860;32;34333;-55
2021/03/28 09:56:13;;;;;;;;;;;;;;;23.53;36.30;101241.47;4481867;32;33459;-48
2021/03/28 09:58:50;;;;;;;;;;;;;;;23.76;36.07;101235.03;4482809;32;35577;-53
2021/03/28 10:01:21;;;;;;;;;;;;;;;23.94;35.82;101238.16;4477137;32;34875;-49
2021/03/28 10:04:06;;;;;;;;;;;;;;;24.15;35.60;101242.75;4465866;32;34733;-48
2021/03/28 10:06:33;;;;;;;;;;;;;;;24.31;35.38;101238.91;4467235;32;33321;-51
2021/03/28 10:09:00;;;;;;;;;;;;;;;24.48;35.19;101237.59;4467524;32;34839;-50
2021/03/28 10:11:29;;;;;;;;;;;;;;;24.64;35.02;101231.81;4469329;32;33739;-49
2021/03/28 10:13:59;;;;;;;;;;;;;;;24.79;34.85;101237.16;4474094;32;34220;-50
2021/03/28 10:16:38;;;;;;;;;;;;;;;24.93;34.69;101238.91;4477911;32;33341;-52
2021/03/28 10:19:07;;;;;;;;;;;;;;;25.08;34.52;101236.06;4484997;32;34142;-52
2021/03/28 10:21:43;;;;;;;;;;;;;;;25.21;34.37;101231.72;4479998;32;34145;-50
2021/03/28 10:24:17;;;;;;;;;;;;;;;25.32;34.22;101229.25;4484943;32;33852;-50
2021/03/28 10:26:48;;;;;;;;;;;;;;;25.45;34.05;101228.44;4470852;32;33965;-54
2021/03/28 10:29:28;;;;;;;;;;;;;;;25.57;33.92;101240.47;4469221;32;34865;-55
2021/03/28 10:31:55;;;;;;;;;;;;;;;25.69;33.77;101227.03;4469163;32;33774;-53
2021/03/28 10:34:41;;;;;;;;;;;;;;;25.82;33.65;101231.72;4469135;32;35437;-54
2021/03/28 10:37:11;;;;;;;;;;;;;;;25.92;33.52;101235.72;4469542;32;32432;-51
2021/03/28 10:39:42;;;;;;;;;;;;;;;26.03;33.42;101227.97;4473153;32;34629;-56
2021/03/28 10:42:25;;;;;;;;;;;;;;;26.13;33.31;101223.75;4483744;32;34577;-48
2021/03/28 10:45:10;;;;;;;;;;;;;;;26.23;33.21;101223.31;4484768;32;34315;-49
2021/03/28 10:47:45;;;;;;;;;;;;;;;26.32;33.13;101223.97;4485217;32;34194;-48
2021/03/28 10:50:15;;;;;;;;;;;;;;;26.39;33.05;101211.09;4483642;32;33703;-53
2021/03/28 10:53:03;;;;;;;;;;;;;;;26.44;32.92;101216.84;4475676;32;34630;-57
2021/03/28 10:55:30;;;;;;;;;;;;;;;26.46;32.81;101206.50;4463253;32;34704;-58
2021/03/28 10:58:04;;;;;;;;;;;;;;;26.49;32.78;101217.03;4468740;32;32830;-53
2021/03/28 11:00:50;;;;;;;;;;;;;;;26.51;32.75;101219.53;4468284;32;34897;-60
2021/03/28 11:03:26;;;;;;;;;;;;;;;26.50;32.73;101207.75;4469105;32;33821;-51
2021/03/28 11:05:53;;;;;;;;;;;;;;;26.46;32.57;101206.50;4468986;32;34209;-56
2021/03/28 11:08:27;;;;;;;;;;;;;;;26.45;32.50;101204.81;4469269;32;34050;-54
2021/03/28 11:11:03;;;;;;;;;;;;;;;26.41;32.51;101201.62;4468109;32;34819;-56
2021/03/28 11:13:49;;;;;;;;;;;;;;;26.38;32.50;101207.53;4467034;32;33525;-48
2021/03/28 11:16:35;;;;;;;;;;;;;;;26.34;32.54;101214.47;4476308;32;34015;-50
2021/03/28 11:19:21;;;;;;;;;;;;;;;26.30;32.59;101206.91;4481719;31;34005;-47
2021/03/28 11:22:02;;;;;;;;;;;;;;;26.24;32.53;101205.00;4483446;32;34087;-55
2021/03/28 11:24:43;;;;;;;;;;;;;;;26.19;32.74;101211.12;4483202;32;34044;-52
2021/03/28 11:27:29;;;;;;;;;;;;;;;26.15;32.89;101207.13;4483417;32;33999;-47
2021/03/28 11:29:56;;;;;;;;;;;;;;;26.09;32.95;101203.34;4484533;32;32704;-49
2021/03/28 11:32:36;;;;;;;;;;;;;;;26.05;32.91;101206.72;4484276;32;34067;-57
2021/03/28 11:35:09;;;;;;;;;;;;;;;26.01;32.84;101199.97;4483357;32;34149;-54
2021/03/28 11:37:36;;;;;;;;;;;;;;;25.96;33.07;101195.12;4484004;32;33854;-50
2021/03/28 11:40:16;;;;;;;;;;;;;;;25.91;33.40;101195.75;4484540;32;33447;-53
2021/03/28 11:42:42;;;;;;;;;;;;;;;25.87;33.62;101196.37;4484439;32;34025;-49
2021/03/28 11:45:28;;;;;;;;;;;;;;;25.82;33.92;101188.81;4484166;32;34567;-54
2021/03/28 11:48:35;;;;;;;;;;;;;;;25.78;34.07;101194.91;4484123;32;35561;-55
2021/03/28 11:51:21;;;;;;;;;;;;;;;25.73;34.07;101189.19;4483096;32;34040;-47
2021/03/28 11:53:49;;;;;;;;;;;;;;;25.68;34.17;101185.19;4484641;32;33743;-47
2021/03/28 11:56:35;;;;;;;;;;;;;;;25.62;34.28;101175.09;4483109;32;33795;-49
2021/03/28 11:59:06;;;;;;;;;;;;;;;25.58;34.35;101170.25;4484253;32;34769;-50
2021/03/28 12:01:52;;;;;;;;;;;;;;;25.50;34.47;101163.06;4483064;32;33341;-47
2021/03/28 12:04:32;;;;;;;;;;;;;;;25.47;34.63;101165.41;4480685;32;34214;-47
2021/03/28 12:07:20;;;;;;;;;;;;;;;25.44;34.52;101158.44;4471826;32;34137;-53
2021/03/28 12:10:08;;;;;;;;;;;;;;;25.40;34.52;101157.19;4476624;32;33990;-49
2021/03/28 12:12:34;;;;;;;;;;;;;;;25.33;34.69;101154.44;4473287;32;33120;-48
2021/03/28 12:15:21;;;;;;;;;;;;;;;25.31;34.68;101161.16;4484031;32;35483;-47
2021/03/28 12:17:55;;;;;;;;;;;;;;;25.29;34.68;101150.44;4484120;32;34108;-49
2021/03/28 12:20:23;;;;;;;;;;;;;;;25.26;34.75;101152.72;4482782;32;33997;-50
2021/03/28 12:22:51;;;;;;;;;;;;;;;25.22;34.82;101148.72;4461245;32;33270;-49
2021/03/28 12:25:38;;;;;;;;;;;;;;;25.21;34.93;101145.16;4467267;32;34865;-47
2021/03/28 12:28:24;;;;;;;;;;;;;;;25.15;34.97;101146.81;4468347;32;33787;-50
2021/03/28 12:30:51;;;;;;;;;;;;;;;25.12;35.01;101135.47;4467446;32;34334;-55
2021/03/28 12:33:22;;;;;;;;;;;;;;;25.09;35.09;101138.63;4466697;32;33968;-52
2021/03/28 12:35:56;;;;;;;;;;;;;;;25.07;35.28;101132.47;4472734;32;33700;-48
2021/03/28 12:38:29;;;;;;;;;;;;;;;25.04;35.36;101133.75;4483841;32;34103;-50
2021/03/28 12:41:11;;;;;;;;;;;;;;;25.01;35.44;101125.97;4484092;32;34830;-48
2021/03/28 12:43:41;;;;;;;;;;;;;;;24.99;35.47;101135.37;4482841;32;33262;-51
2021/03/28 12:46:26;;;;;;;;;;;;;;;24.99;35.49;101125.31;4483798;32;34951;-49
2021/03/28 12:49:13;;;;;;;;;;;;;;;24.94;35.53;101125.06;4484094;32;34203;-50
2021/03/28 12:52:03;;;;;;;;;;;;;;;24.93;35.55;101131.59;4483486;32;34845;-50
2021/03/28 12:54:34;;;;;;;;;;;;;;;24.92;35.62;101127.19;4479410;31;34207;-52
2021/03/28 12:57:04;;;;;;;;;;;;;;;24.86;35.65;101136.19;4483684;32;34854;-49
2021/03/28 12:59:30;;;;;;;;;;;;;;;24.84;35.69;101135.53;4476376;32;34117;-53
2021/03/28 13:02:16;;;;;;;;;;;;;;;24.82;35.72;101140.38;4482958;32;33562;-48
2021/03/28 13:04:56;;;;;;;;;;;;;;;24.80;35.70;101128.81;4483678;32;33260;-50
2021/03/28 13:07:41;;;;;;;;;;;;;;;24.75;35.77;101115.75;4483719;32;34788;-47
2021/03/28 13:10:25;;;;;;;;;;;;;;;24.73;35.80;101120.59;4483602;32;33744;-50
2021/03/28 13:13:06;;;;;;;;;;;;;;;24.71;35.86;101117.22;4483723;32;34181;-49
2021/03/28 13:15:36;;;;;;;;;;;;;;;24.69;35.87;101116.59;4459701;32;33160;-49
2021/03/28 13:18:13;;;;;;;;;;;;;;;24.68;35.78;101114.91;4481970;31;34912;-50
2021/03/28 13:20:40;;;;;;;;;;;;;;;24.66;35.83;101117.81;4474614;32;34240;-53
2021/03/28 13:23:19;;;;;;;;;;;;;;;24.66;35.83;101112.38;4482951;32;35680;-50
2021/03/28 13:25:47;;;;;;;;;;;;;;;24.66;35.87;101116.97;4467854;32;34319;-52